sensor_id;sensor_type;location;lat;lon;timestamp;pressure;altitude;pressure_sealevel;temperature;humidity
63715;BME280;49858;48.956;9.076;2023-11-19T00:01:06;98701.75;;;11.10;100.00
63715;BME280;49858;48.956;9.076;2023-11-19T00:03:34;98688.03;;;10.94;100.00
63715;BME280;49858;48.956;9.076;2023-11-19T00:06:02;98699.66;;;11.04;100.00
63715;BME280;49858;48.956;9.076;2023-11-19T00:08:30;98706.06;;;11.27;100.00
63715;BME280;49858;48.956;9.076;2023-11-19T00:10:57;98695.94;;;11.31;100.00
63715;BME280;49858;48.956;9.076;2023-11-19T00:13:28;98706.88;;;11.66;100.00
63715;BME280;49858;48.956;9.076;2023-11-19T00:15:56;98691.63;;;12.11;100.00
63715;BME280;49858;48.956;9.076;2023-11-19T00:18:24;98691.88;;;12.48;100.00
63715;BME280;49858;48.956;9.076;2023-11-19T00:20:52;98693.78;;;12.97;100.00
63715;BME280;49858;48.956;9.076;2023-11-19T00:23:20;98682.31;;;12.42;100.00
63715;BME280;49858;48.956;9.076;2023-11-19T00:25:48;98690.72;;;12.76;100.00
63715;BME280;49858;48.956;9.076;2023-11-19T00:28:16;98688.91;;;13.14;100.00
63715;BME280;49858;48.956;9.076;2023-11-19T00:30:46;98684.44;;;13.05;100.00
63715;BME280;49858;48.956;9.076;2023-11-19T00:33:13;98675.50;;;13.16;100.00
63715;BME280;49858;48.956;9.076;2023-11-19T00:35:41;98665.13;;;12.79;100.00
63715;BME280;49858;48.956;9.076;2023-11-19T00:38:10;98666.09;;;12.64;100.00
63715;BME280;49858;48.956;9.076;2023-11-19T00:40:38;98674.16;;;13.02;100.00
63715;BME280;49858;48.956;9.076;2023-11-19T00:43:07;98662.75;;;13.34;100.00
63715;BME280;49858;48.956;9.076;2023-11-19T00:45:35;98663.63;;;13.12;100.00
63715;BME280;49858;48.956;9.076;2023-11-19T00:48:05;98660.50;;;13.13;100.00
63715;BME280;49858;48.956;9.076;2023-11-19T00:50:33;98667.28;;;13.19;100.00
63715;BME280;49858;48.956;9.076;2023-11-19T00:53:04;98662.81;;;13.38;100.00
63715;BME280;49858;48.956;9.076;2023-11-19T00:55:32;98649.16;;;13.52;100.00
63715;BME280;49858;48.956;9.076;2023-11-19T00:58:01;98645.00;;;13.32;100.00
63715;BME280;49858;48.956;9.076;2023-11-19T01:00:29;98639.41;;;13.28;100.00
63715;BME280;49858;48.956;9.076;2023-11-19T01:02:59;98621.78;;;13.10;100.00
63715;BME280;49858;48.956;9.076;2023-11-19T01:05:28;98622.69;;;13.21;100.00
63715;BME280;49858;48.956;9.076;2023-11-19T01:07:56;98631.31;;;13.16;100.00
63715;BME280;49858;48.956;9.076;2023-11-19T01:10:24;98624.09;;;13.08;100.00
63715;BME280;49858;48.956;9.076;2023-11-19T01:12:52;98621.78;;;13.10;100.00
63715;BME280;49858;48.956;9.076;2023-11-19T01:15:20;98617.94;;;13.18;100.00
63715;BME280;49858;48.956;9.076;2023-11-19T01:17:49;98627.19;;;13.29;100.00
63715;BME280;49858;48.956;9.076;2023-11-19T01:20:19;98616.63;;;13.38;100.00
63715;BME280;49858;48.956;9.076;2023-11-19T01:22:49;98614.84;;;13.53;100.00
63715;BME280;49858;48.956;9.076;2023-11-19T01:25:17;98657.69;;;13.70;100.00
63715;BME280;49858;48.956;9.076;2023-11-19T01:27:46;98636.72;;;13.69;100.00
63715;BME280;49858;48.956;9.076;2023-11-19T01:30:14;98628.69;;;13.57;100.00
63715;BME280;49858;48.956;9.076;2023-11-19T01:32:42;98626.44;;;13.66;100.00
63715;BME280;49858;48.956;9.076;2023-11-19T01:35:10;98622.72;;;13.54;100.00
63715;BME280;49858;48.956;9.076;2023-11-19T01:37:38;98626.66;;;13.20;100.00
63715;BME280;49858;48.956;9.076;2023-11-19T01:40:08;98630.16;;;13.17;100.00
63715;BME280;49858;48.956;9.076;2023-11-19T01:42:38;98628.59;;;13.49;100.00
63715;BME280;49858;48.956;9.076;2023-11-19T01:45:07;98614.00;;;13.86;100.00
63715;BME280;49858;48.956;9.076;2023-11-19T01:47:36;98617.16;;;13.85;100.00
63715;BME280;49858;48.956;9.076;2023-11-19T01:50:07;98618.81;;;13.55;100.00
63715;BME280;49858;48.956;9.076;2023-11-19T01:52:35;98605.56;;;13.72;100.00
63715;BME280;49858;48.956;9.076;2023-11-19T01:55:04;98606.53;;;13.90;100.00
63715;BME280;49858;48.956;9.076;2023-11-19T01:57:35;98603.84;;;13.97;100.00
63715;BME280;49858;48.956;9.076;2023-11-19T02:00:06;98612.47;;;13.92;100.00
63715;BME280;49858;48.956;9.076;2023-11-19T02:02:43;98612.50;;;13.55;100.00
63715;BME280;49858;48.956;9.076;2023-11-19T02:05:12;98608.19;;;14.02;100.00
63715;BME280;49858;48.956;9.076;2023-11-19T02:07:40;98603.09;;;14.04;100.00
63715;BME280;49858;48.956;9.076;2023-11-19T02:10:09;98597.53;;;14.00;100.00
63715;BME280;49858;48.956;9.076;2023-11-19T02:12:42;98594.97;;;14.22;100.00
63715;BME280;49858;48.956;9.076;2023-11-19T02:15:11;98594.25;;;14.32;100.00
63715;BME280;49858;48.956;9.076;2023-11-19T02:17:39;98591.03;;;14.30;100.00
63715;BME280;49858;48.956;9.076;2023-11-19T02:20:08;98593.66;;;14.09;100.00
63715;BME280;49858;48.956;9.076;2023-11-19T02:22:39;98593.19;;;13.99;100.00
63715;BME280;49858;48.956;9.076;2023-11-19T02:25:07;98600.72;;;14.02;100.00
63715;BME280;49858;48.956;9.076;2023-11-19T02:27:56;98604.25;;;13.99;100.00
63715;BME280;49858;48.956;9.076;2023-11-19T02:30:26;98601.19;;;14.12;100.00
63715;BME280;49858;48.956;9.076;2023-11-19T02:32:55;98610.03;;;13.87;100.00
63715;BME280;49858;48.956;9.076;2023-11-19T02:35:24;98696.03;;;13.75;100.00
63715;BME280;49858;48.956;9.076;2023-11-19T02:37:52;98651.38;;;13.73;100.00
63715;BME280;49858;48.956;9.076;2023-11-19T02:40:20;98633.50;;;13.63;100.00
63715;BME280;49858;48.956;9.076;2023-11-19T02:42:50;98616.88;;;14.00;100.00
63715;BME280;49858;48.956;9.076;2023-11-19T02:45:20;98600.72;;;14.02;100.00
63715;BME280;49858;48.956;9.076;2023-11-19T02:47:49;98605.22;;;13.77;100.00
63715;BME280;49858;48.956;9.076;2023-11-19T02:50:17;98605.31;;;13.88;100.00
63715;BME280;49858;48.956;9.076;2023-11-19T02:52:52;98610.31;;;14.16;100.00
63715;BME280;49858;48.956;9.076;2023-11-19T02:55:20;98605.72;;;14.34;100.00
63715;BME280;49858;48.956;9.076;2023-11-19T02:57:50;98608.81;;;13.81;100.00
63715;BME280;49858;48.956;9.076;2023-11-19T03:00:22;98618.94;;;14.07;100.00
63715;BME280;49858;48.956;9.076;2023-11-19T03:02:51;98602.88;;;13.79;100.00
63715;BME280;49858;48.956;9.076;2023-11-19T03:05:27;98602.44;;;14.18;100.00
63715;BME280;49858;48.956;9.076;2023-11-19T03:07:56;98595.00;;;14.29;100.00
63715;BME280;49858;48.956;9.076;2023-11-19T03:10:24;98596.03;;;14.10;100.00
63715;BME280;49858;48.956;9.076;2023-11-19T03:12:52;98586.41;;;13.52;100.00
63715;BME280;49858;48.956;9.076;2023-11-19T03:15:23;98595.00;;;13.14;100.00
63715;BME280;49858;48.956;9.076;2023-11-19T03:17:51;98603.97;;;13.07;100.00
63715;BME280;49858;48.956;9.076;2023-11-19T03:20:19;98609.28;;;13.19;100.00
63715;BME280;49858;48.956;9.076;2023-11-19T03:22:47;98599.03;;;12.90;100.00
63715;BME280;49858;48.956;9.076;2023-11-19T03:25:15;98592.09;;;12.46;100.00
63715;BME280;49858;48.956;9.076;2023-11-19T03:27:43;98594.03;;;12.42;100.00
63715;BME280;49858;48.956;9.076;2023-11-19T03:30:11;98598.69;;;12.65;100.00
63715;BME280;49858;48.956;9.076;2023-11-19T03:32:40;98595.69;;;13.03;100.00
63715;BME280;49858;48.956;9.076;2023-11-19T03:35:08;98596.81;;;12.99;100.00
63715;BME280;49858;48.956;9.076;2023-11-19T03:37:37;98585.88;;;13.10;100.00
63715;BME280;49858;48.956;9.076;2023-11-19T03:40:07;98584.63;;;13.34;100.00
63715;BME280;49858;48.956;9.076;2023-11-19T03:42:35;98583.13;;;13.10;100.00
63715;BME280;49858;48.956;9.076;2023-11-19T03:45:03;98577.81;;;13.24;100.00
63715;BME280;49858;48.956;9.076;2023-11-19T03:47:31;98581.34;;;13.24;100.00
63715;BME280;49858;48.956;9.076;2023-11-19T03:50:00;98569.81;;;13.52;100.00
63715;BME280;49858;48.956;9.076;2023-11-19T03:52:29;98565.56;;;13.62;100.00
63715;BME280;49858;48.956;9.076;2023-11-19T03:55:09;98554.91;;;13.61;100.00
63715;BME280;49858;48.956;9.076;2023-11-19T03:57:38;98547.50;;;13.72;100.00
63715;BME280;49858;48.956;9.076;2023-11-19T04:00:06;98549.34;;;13.57;100.00
63715;BME280;49858;48.956;9.076;2023-11-19T04:02:39;98557.16;;;13.89;100.00
63715;BME280;49858;48.956;9.076;2023-11-19T04:05:09;98556.75;;;13.90;100.00
63715;BME280;49858;48.956;9.076;2023-11-19T04:07:37;98554.03;;;13.94;100.00
63715;BME280;49858;48.956;9.076;2023-11-19T04:10:06;98563.50;;;13.96;100.00
63715;BME280;49858;48.956;9.076;2023-11-19T04:12:35;98547.75;;;14.00;100.00
63715;BME280;49858;48.956;9.076;2023-11-19T04:15:03;98543.44;;;14.03;100.00
63715;BME280;49858;48.956;9.076;2023-11-19T04:17:31;98553.03;;;14.16;100.00
63715;BME280;49858;48.956;9.076;2023-11-19T04:19:59;98547.94;;;14.22;100.00
63715;BME280;49858;48.956;9.076;2023-11-19T04:22:28;98555.00;;;14.19;100.00
63715;BME280;49858;48.956;9.076;2023-11-19T04:24:56;98557.63;;;14.49;100.00
63715;BME280;49858;48.956;9.076;2023-11-19T04:27:24;98546.66;;;14.64;100.00
63715;BME280;49858;48.956;9.076;2023-11-19T04:29:52;98538.63;;;14.48;100.00
63715;BME280;49858;48.956;9.076;2023-11-19T04:32:22;98544.88;;;13.86;100.00
63715;BME280;49858;48.956;9.076;2023-11-19T04:34:52;98539.94;;;12.94;100.00
63715;BME280;49858;48.956;9.076;2023-11-19T04:37:19;98555.38;;;12.99;100.00
63715;BME280;49858;48.956;9.076;2023-11-19T04:39:48;98565.22;;;12.66;100.00
63715;BME280;49858;48.956;9.076;2023-11-19T04:42:17;98563.22;;;12.97;100.00
63715;BME280;49858;48.956;9.076;2023-11-19T04:44:46;98566.63;;;13.17;100.00
63715;BME280;49858;48.956;9.076;2023-11-19T04:47:14;98572.13;;;13.13;100.00
63715;BME280;49858;48.956;9.076;2023-11-19T04:49:42;98575.34;;;12.59;100.00
63715;BME280;49858;48.956;9.076;2023-11-19T04:52:10;98576.84;;;12.52;100.00
63715;BME280;49858;48.956;9.076;2023-11-19T04:54:41;98582.59;;;12.17;100.00
63715;BME280;49858;48.956;9.076;2023-11-19T04:57:10;98600.13;;;12.28;100.00
63715;BME280;49858;48.956;9.076;2023-11-19T04:59:38;98597.31;;;13.08;100.00
63715;BME280;49858;48.956;9.076;2023-11-19T05:02:06;98589.19;;;12.62;100.00
63715;BME280;49858;48.956;9.076;2023-11-19T05:04:35;98596.44;;;12.74;100.00
63715;BME280;49858;48.956;9.076;2023-11-19T05:07:04;98591.66;;;11.72;100.00
63715;BME280;49858;48.956;9.076;2023-11-19T05:09:33;98608.78;;;11.62;100.00
63715;BME280;49858;48.956;9.076;2023-11-19T05:12:01;98616.50;;;11.75;100.00
63715;BME280;49858;48.956;9.076;2023-11-19T05:14:30;98624.50;;;12.26;100.00
63715;BME280;49858;48.956;9.076;2023-11-19T05:16:58;98613.00;;;12.74;100.00
63715;BME280;49858;48.956;9.076;2023-11-19T05:19:26;98624.69;;;12.90;100.00
63715;BME280;49858;48.956;9.076;2023-11-19T05:21:54;98608.66;;;13.03;100.00
63715;BME280;49858;48.956;9.076;2023-11-19T05:24:22;98624.69;;;12.90;100.00
63715;BME280;49858;48.956;9.076;2023-11-19T05:26:51;98614.09;;;13.22;100.00
63715;BME280;49858;48.956;9.076;2023-11-19T05:29:19;98617.47;;;13.42;100.00
63715;BME280;49858;48.956;9.076;2023-11-19T05:31:48;98602.81;;;13.38;100.00
63715;BME280;49858;48.956;9.076;2023-11-19T05:34:16;98593.28;;;13.32;100.00
63715;BME280;49858;48.956;9.076;2023-11-19T05:36:45;98593.06;;;13.48;100.00
63715;BME280;49858;48.956;9.076;2023-11-19T05:39:13;98589.00;;;13.38;100.00
63715;BME280;49858;48.956;9.076;2023-11-19T05:41:41;98586.69;;;13.44;100.00
63715;BME280;49858;48.956;9.076;2023-11-19T05:44:09;98582.19;;;13.66;100.00
63715;BME280;49858;48.956;9.076;2023-11-19T05:46:36;98573.47;;;13.60;100.00
63715;BME280;49858;48.956;9.076;2023-11-19T05:49:10;98569.22;;;13.70;100.00
63715;BME280;49858;48.956;9.076;2023-11-19T05:51:38;98565.59;;;14.10;100.00
63715;BME280;49858;48.956;9.076;2023-11-19T05:54:07;98561.28;;;14.13;100.00
63715;BME280;49858;48.956;9.076;2023-11-19T05:56:36;98573.41;;;13.97;100.00
63715;BME280;49858;48.956;9.076;2023-11-19T05:59:04;98583.97;;;13.85;100.00
63715;BME280;49858;48.956;9.076;2023-11-19T06:01:35;98595.03;;;13.85;100.00
63715;BME280;49858;48.956;9.076;2023-11-19T06:04:04;98595.03;;;13.85;100.00
63715;BME280;49858;48.956;9.076;2023-11-19T06:06:34;98612.38;;;13.81;100.00
63715;BME280;49858;48.956;9.076;2023-11-19T06:09:02;98591.16;;;13.93;100.00
63715;BME280;49858;48.956;9.076;2023-11-19T06:11:35;98597.09;;;13.95;100.00
63715;BME280;49858;48.956;9.076;2023-11-19T06:14:03;98594.06;;;14.11;100.00
63715;BME280;49858;48.956;9.076;2023-11-19T06:16:32;98607.63;;;13.78;100.00
63715;BME280;49858;48.956;9.076;2023-11-19T06:19:00;98590.19;;;13.74;100.00
63715;BME280;49858;48.956;9.076;2023-11-19T06:21:28;98590.38;;;13.96;100.00
63715;BME280;49858;48.956;9.076;2023-11-19T06:23:57;98593.53;;;13.94;100.00
63715;BME280;49858;48.956;9.076;2023-11-19T06:26:24;98591.56;;;13.95;100.00
63715;BME280;49858;48.956;9.076;2023-11-19T06:28:52;98595.28;;;14.13;100.00
63715;BME280;49858;48.956;9.076;2023-11-19T06:31:20;98604.34;;;14.10;100.00
63715;BME280;49858;48.956;9.076;2023-11-19T06:33:48;98606.59;;;13.97;100.00
63715;BME280;49858;48.956;9.076;2023-11-19T06:36:16;98598.75;;;14.06;100.00
63715;BME280;49858;48.956;9.076;2023-11-19T06:38:44;98596.78;;;14.03;100.00
63715;BME280;49858;48.956;9.076;2023-11-19T06:41:13;98601.28;;;14.22;100.00
63715;BME280;49858;48.956;9.076;2023-11-19T06:43:41;98608.03;;;14.28;100.00
63715;BME280;49858;48.956;9.076;2023-11-19T06:46:19;98609.22;;;14.27;100.00
63715;BME280;49858;48.956;9.076;2023-11-19T06:48:47;98604.94;;;14.37;100.00
63715;BME280;49858;48.956;9.076;2023-11-19T06:51:15;98594.81;;;14.52;100.00
63715;BME280;49858;48.956;9.076;2023-11-19T06:53:43;98597.72;;;14.25;100.00
63715;BME280;49858;48.956;9.076;2023-11-19T06:56:20;98593.06;;;14.33;100.00
63715;BME280;49858;48.956;9.076;2023-11-19T06:58:48;98587.25;;;14.49;100.00
63715;BME280;49858;48.956;9.076;2023-11-19T07:01:17;98580.91;;;14.45;100.00
63715;BME280;49858;48.956;9.076;2023-11-19T07:03:45;98587.09;;;14.27;100.00
63715;BME280;49858;48.956;9.076;2023-11-19T07:06:14;98607.53;;;14.60;100.00
63715;BME280;49858;48.956;9.076;2023-11-19T07:08:42;98625.97;;;14.45;100.00
63715;BME280;49858;48.956;9.076;2023-11-19T07:11:12;98615.41;;;14.54;100.00
63715;BME280;49858;48.956;9.076;2023-11-19T07:13:42;98623.47;;;14.77;100.00
63715;BME280;49858;48.956;9.076;2023-11-19T07:16:10;98615.66;;;14.97;100.00
63715;BME280;49858;48.956;9.076;2023-11-19T07:18:38;98617.75;;;14.52;100.00
63715;BME280;49858;48.956;9.076;2023-11-19T07:21:06;98617.25;;;14.98;100.00
63715;BME280;49858;48.956;9.076;2023-11-19T07:23:37;98616.53;;;15.12;100.00
63715;BME280;49858;48.956;9.076;2023-11-19T07:26:05;98611.44;;;14.55;100.00
63715;BME280;49858;48.956;9.076;2023-11-19T07:28:35;98619.47;;;14.75;100.00
63715;BME280;49858;48.956;9.076;2023-11-19T07:31:05;98616.41;;;14.91;100.00
63715;BME280;49858;48.956;9.076;2023-11-19T07:33:34;98613.47;;;14.62;100.00
63715;BME280;49858;48.956;9.076;2023-11-19T07:36:02;98625.88;;;14.86;100.00
63715;BME280;49858;48.956;9.076;2023-11-19T07:38:30;98622.44;;;15.07;100.00
63715;BME280;49858;48.956;9.076;2023-11-19T07:40:58;98620.13;;;15.23;100.00
63715;BME280;49858;48.956;9.076;2023-11-19T07:43:26;98612.66;;;15.38;100.00
63715;BME280;49858;48.956;9.076;2023-11-19T07:45:54;98632.88;;;14.66;100.00
63715;BME280;49858;48.956;9.076;2023-11-19T07:48:23;98631.28;;;14.65;100.00
63715;BME280;49858;48.956;9.076;2023-11-19T07:50:52;98633.97;;;15.23;100.00
63715;BME280;49858;48.956;9.076;2023-11-19T07:53:20;98634.59;;;15.72;100.00
63715;BME280;49858;48.956;9.076;2023-11-19T07:55:48;98633.88;;;16.75;100.00
63715;BME280;49858;48.956;9.076;2023-11-19T07:58:15;98612.09;;;16.34;100.00
63715;BME280;49858;48.956;9.076;2023-11-19T08:00:43;98626.34;;;16.61;100.00
63715;BME280;49858;48.956;9.076;2023-11-19T08:03:11;98625.53;;;16.89;100.00
63715;BME280;49858;48.956;9.076;2023-11-19T08:05:41;98621.56;;;16.69;100.00
63715;BME280;49858;48.956;9.076;2023-11-19T08:08:09;98608.91;;;16.35;100.00
63715;BME280;49858;48.956;9.076;2023-11-19T08:10:36;98610.84;;;16.60;100.00
63715;BME280;49858;48.956;9.076;2023-11-19T08:13:04;98607.69;;;16.08;100.00
63715;BME280;49858;48.956;9.076;2023-11-19T08:15:32;98612.06;;;16.48;100.00
63715;BME280;49858;48.956;9.076;2023-11-19T08:18:00;98612.09;;;16.23;100.00
63715;BME280;49858;48.956;9.076;2023-11-19T08:20:28;98623.38;;;15.40;100.00
63715;BME280;49858;48.956;9.076;2023-11-19T08:22:57;98641.47;;;15.16;100.00
63715;BME280;49858;48.956;9.076;2023-11-19T08:25:27;98635.78;;;14.91;100.00
63715;BME280;49858;48.956;9.076;2023-11-19T08:27:55;98641.66;;;14.78;100.00
63715;BME280;49858;48.956;9.076;2023-11-19T08:30:23;98645.41;;;14.52;100.00
63715;BME280;49858;48.956;9.076;2023-11-19T08:32:51;98644.06;;;14.83;100.00
63715;BME280;49858;48.956;9.076;2023-11-19T08:35:19;98662.94;;;14.67;100.00
63715;BME280;49858;48.956;9.076;2023-11-19T08:37:47;98646.41;;;14.81;100.00
63715;BME280;49858;48.956;9.076;2023-11-19T08:40:16;98652.22;;;14.59;100.00
63715;BME280;49858;48.956;9.076;2023-11-19T08:42:44;98676.81;;;14.30;100.00
63715;BME280;49858;48.956;9.076;2023-11-19T08:45:12;98675.34;;;14.40;100.00
63715;BME280;49858;48.956;9.076;2023-11-19T08:47:43;98658.91;;;14.57;100.00
63715;BME280;49858;48.956;9.076;2023-11-19T08:50:11;98641.34;;;14.94;100.00
63715;BME280;49858;48.956;9.076;2023-11-19T08:52:39;98638.41;;;15.39;100.00
63715;BME280;49858;48.956;9.076;2023-11-19T08:55:07;98637.91;;;15.12;100.00
63715;BME280;49858;48.956;9.076;2023-11-19T08:57:37;98637.16;;;15.29;100.00
63715;BME280;49858;48.956;9.076;2023-11-19T09:00:08;98640.47;;;15.59;100.00
63715;BME280;49858;48.956;9.076;2023-11-19T09:02:36;98639.19;;;15.36;100.00
63715;BME280;49858;48.956;9.076;2023-11-19T09:05:05;98639.38;;;15.82;100.00
63715;BME280;49858;48.956;9.076;2023-11-19T09:07:34;98641.75;;;15.94;100.00
63715;BME280;49858;48.956;9.076;2023-11-19T09:10:03;98642.94;;;15.79;100.00
63715;BME280;49858;48.956;9.076;2023-11-19T09:12:32;98642.94;;;15.79;100.00
63715;BME280;49858;48.956;9.076;2023-11-19T09:15:01;98636.25;;;16.05;100.00
63715;BME280;49858;48.956;9.076;2023-11-19T09:17:29;98637.31;;;15.57;100.00
63715;BME280;49858;48.956;9.076;2023-11-19T09:19:57;98639.00;;;15.94;100.00
63715;BME280;49858;48.956;9.076;2023-11-19T09:22:25;98648.50;;;15.93;100.00
63715;BME280;49858;48.956;9.076;2023-11-19T09:24:53;98633.41;;;15.73;100.00
63715;BME280;49858;48.956;9.076;2023-11-19T09:27:21;98637.31;;;15.57;100.00
63715;BME280;49858;48.956;9.076;2023-11-19T09:29:49;98639.75;;;15.80;100.00
63715;BME280;49858;48.956;9.076;2023-11-19T09:32:24;98657.94;;;14.87;100.00
63715;BME280;49858;48.956;9.076;2023-11-19T09:34:54;98660.75;;;14.94;100.00
63715;BME280;49858;48.956;9.076;2023-11-19T09:37:22;98676.88;;;14.78;100.00
63715;BME280;49858;48.956;9.076;2023-11-19T09:39:50;98669.47;;;15.00;100.00
63715;BME280;49858;48.956;9.076;2023-11-19T09:42:17;98661.53;;;14.95;100.00
63715;BME280;49858;48.956;9.076;2023-11-19T09:44:47;98673.84;;;15.81;100.00
63715;BME280;49858;48.956;9.076;2023-11-19T09:47:17;98669.84;;;15.75;100.00
63715;BME280;49858;48.956;9.076;2023-11-19T09:49:49;98671.16;;;16.24;100.00
63715;BME280;49858;48.956;9.076;2023-11-19T09:52:18;98671.88;;;15.92;100.00
63715;BME280;49858;48.956;9.076;2023-11-19T09:54:45;98658.09;;;16.74;100.00
63715;BME280;49858;48.956;9.076;2023-11-19T09:57:14;98642.19;;;16.32;100.00
63715;BME280;49858;48.956;9.076;2023-11-19T09:59:45;98649.72;;;16.06;100.00
63715;BME280;49858;48.956;9.076;2023-11-19T10:02:14;98639.03;;;16.66;100.00
63715;BME280;49858;48.956;9.076;2023-11-19T10:04:45;98642.63;;;16.73;100.00
63715;BME280;49858;48.956;9.076;2023-11-19T10:07:16;98645.31;;;15.84;100.00
63715;BME280;49858;48.956;9.076;2023-11-19T10:09:44;98654.78;;;15.76;100.00
63715;BME280;49858;48.956;9.076;2023-11-19T10:12:13;98649.34;;;16.12;100.00
63715;BME280;49858;48.956;9.076;2023-11-19T10:14:44;98638.22;;;16.01;100.00
63715;BME280;49858;48.956;9.076;2023-11-19T10:17:13;98634.69;;;16.15;100.00
63715;BME280;49858;48.956;9.076;2023-11-19T10:19:41;98629.53;;;16.34;100.00
63715;BME280;49858;48.956;9.076;2023-11-19T10:22:10;98614.84;;;16.16;100.00
63715;BME280;49858;48.956;9.076;2023-11-19T10:24:39;98619.19;;;16.60;100.00
63715;BME280;49858;48.956;9.076;2023-11-19T10:27:14;98596.59;;;16.54;100.00
63715;BME280;49858;48.956;9.076;2023-11-19T10:29:45;98638.22;;;16.12;100.00
63715;BME280;49858;48.956;9.076;2023-11-19T10:32:13;98593.81;;;16.08;100.00
63715;BME280;49858;48.956;9.076;2023-11-19T10:35:04;98600.97;;;16.13;100.00
63715;BME280;49858;48.956;9.076;2023-11-19T10:37:33;98589.03;;;16.55;100.00
63715;BME280;49858;48.956;9.076;2023-11-19T10:40:07;98591.81;;;16.51;100.00
63715;BME280;49858;48.956;9.076;2023-11-19T10:42:37;98577.13;;;16.69;100.00
63715;BME280;49858;48.956;9.076;2023-11-19T10:45:21;98593.00;;;16.65;100.00
63715;BME280;49858;48.956;9.076;2023-11-19T10:47:50;98585.06;;;16.81;100.00
63715;BME280;49858;48.956;9.076;2023-11-19T10:50:19;98586.19;;;17.01;100.00
63715;BME280;49858;48.956;9.076;2023-11-19T10:52:48;98599.25;;;17.19;100.00
63715;BME280;49858;48.956;9.076;2023-11-19T10:55:22;98604.91;;;16.51;100.00
63715;BME280;49858;48.956;9.076;2023-11-19T10:57:58;98586.50;;;17.28;100.00
63715;BME280;49858;48.956;9.076;2023-11-19T11:00:29;98579.88;;;16.90;100.00
63715;BME280;49858;48.956;9.076;2023-11-19T11:03:00;98580.31;;;16.81;100.00
63715;BME280;49858;48.956;9.076;2023-11-19T11:05:32;98606.50;;;16.66;100.00
63715;BME280;49858;48.956;9.076;2023-11-19T11:08:01;98575.91;;;16.84;100.00
63715;BME280;49858;48.956;9.076;2023-11-19T11:10:35;98564.47;;;16.50;100.00
63715;BME280;49858;48.956;9.076;2023-11-19T11:13:23;98555.72;;;16.73;100.00
63715;BME280;49858;48.956;9.076;2023-11-19T11:15:51;98559.63;;;16.97;100.00
63715;BME280;49858;48.956;9.076;2023-11-19T11:18:21;98535.75;;;17.03;100.00
63715;BME280;49858;48.956;9.076;2023-11-19T11:20:51;98535.88;;;16.78;100.00
63715;BME280;49858;48.956;9.076;2023-11-19T11:23:40;98541.00;;;16.90;100.00
63715;BME280;49858;48.956;9.076;2023-11-19T11:29:26;98545.03;;;16.57;100.00
63715;BME280;49858;48.956;9.076;2023-11-19T11:32:07;98550.13;;;16.83;100.00
63715;BME280;49858;48.956;9.076;2023-11-19T11:34:47;98536.16;;;17.08;100.00
63715;BME280;49858;48.956;9.076;2023-11-19T11:37:25;98527.34;;;17.24;100.00
63715;BME280;49858;48.956;9.076;2023-11-19T11:39:53;98520.66;;;17.07;100.00
63715;BME280;49858;48.956;9.076;2023-11-19T11:42:35;98529.78;;;17.81;100.00
63715;BME280;49858;48.956;9.076;2023-11-19T11:45:05;98539.34;;;17.77;100.00
63715;BME280;49858;48.956;9.076;2023-11-19T11:48:10;98525.13;;;16.91;100.00
63715;BME280;49858;48.956;9.076;2023-11-19T11:50:57;98514.72;;;17.79;100.00
63715;BME280;49858;48.956;9.076;2023-11-19T11:53:25;98530.06;;;17.35;100.00
63715;BME280;49858;48.956;9.076;2023-11-19T11:55:55;98522.16;;;17.26;100.00
63715;BME280;49858;48.956;9.076;2023-11-19T11:58:27;98527.94;;;18.16;100.00
63715;BME280;49858;48.956;9.076;2023-11-19T12:01:00;98502.22;;;17.42;100.00
63715;BME280;49858;48.956;9.076;2023-11-19T12:03:29;98527.63;;;17.44;100.00
63715;BME280;49858;48.956;9.076;2023-11-19T12:05:58;98517.97;;;17.59;100.00
63715;BME280;49858;48.956;9.076;2023-11-19T12:08:27;98523.75;;;17.27;100.00
63715;BME280;49858;48.956;9.076;2023-11-19T12:10:57;98507.03;;;17.31;100.00
63715;BME280;49858;48.956;9.076;2023-11-19T12:13:46;98522.28;;;17.05;100.00
63715;BME280;49858;48.956;9.076;2023-11-19T12:16:17;98527.72;;;17.26;100.00
63715;BME280;49858;48.956;9.076;2023-11-19T12:18:45;98539.75;;;16.98;100.00
63715;BME280;49858;48.956;9.076;2023-11-19T12:21:27;98518.41;;;16.84;100.00
63715;BME280;49858;48.956;9.076;2023-11-19T12:23:55;98520.00;;;16.71;100.00
63715;BME280;49858;48.956;9.076;2023-11-19T12:26:36;98514.41;;;16.85;100.00
63715;BME280;49858;48.956;9.076;2023-11-19T12:29:05;98513.94;;;17.01;100.00
63715;BME280;49858;48.956;9.076;2023-11-19T12:31:37;98494.22;;;17.51;100.00
63715;BME280;49858;48.956;9.076;2023-11-19T12:34:07;98496.91;;;16.92;100.00
63715;BME280;49858;48.956;9.076;2023-11-19T12:36:41;98502.81;;;17.01;100.00
63715;BME280;49858;48.956;9.076;2023-11-19T12:39:10;98475.41;;;17.10;100.00
63715;BME280;49858;48.956;9.076;2023-11-19T12:41:51;98472.34;;;17.50;100.00
63715;BME280;49858;48.956;9.076;2023-11-19T12:44:20;98479.78;;;17.71;100.00
63715;BME280;49858;48.956;9.076;2023-11-19T12:47:00;98487.34;;;17.74;100.00
63715;BME280;49858;48.956;9.076;2023-11-19T12:49:29;98492.56;;;17.57;100.00
63715;BME280;49858;48.956;9.076;2023-11-19T12:51:56;98480.25;;;17.55;100.00
63715;BME280;49858;48.956;9.076;2023-11-19T12:54:34;98498.94;;;17.54;100.00
63715;BME280;49858;48.956;9.076;2023-11-19T12:57:03;98487.69;;;17.76;100.00
63715;BME280;49858;48.956;9.076;2023-11-19T12:59:32;98481.38;;;17.68;100.00
63715;BME280;49858;48.956;9.076;2023-11-19T13:02:01;98484.13;;;17.72;100.00
63715;BME280;49858;48.956;9.076;2023-11-19T13:04:32;98495.81;;;17.45;100.00
63715;BME280;49858;48.956;9.076;2023-11-19T13:07:00;98473.19;;;17.50;100.00